sensor_id;sensor_type;location;lat;lon;timestamp;pressure;altitude;pressure_sealevel;temperature;humidity
42067;BME280;27734;47.028;28.820;2023-05-25T00:01:13;100328.73;;;17.09;65.73
42067;BME280;27734;47.028;28.820;2023-05-25T00:03:45;100334.91;;;17.06;65.46
42067;BME280;27734;47.028;28.820;2023-05-25T00:06:13;100329.61;;;17.05;66.56
42067;BME280;27734;47.028;28.820;2023-05-25T00:08:42;100326.94;;;17.02;66.48
42067;BME280;27734;47.028;28.820;2023-05-25T00:11:10;100329.55;;;16.97;66.42
42067;BME280;27734;47.028;28.820;2023-05-25T00:13:39;100331.26;;;16.92;66.45
42067;BME280;27734;47.028;28.820;2023-05-25T00:16:08;100333.88;;;16.87;66.41
42067;BME280;27734;47.028;28.820;2023-05-25T00:18:36;100339.16;;;16.84;66.63
42067;BME280;27734;47.028;28.820;2023-05-25T00:21:05;100346.13;;;16.76;67.09
42067;BME280;27734;47.028;28.820;2023-05-25T00:23:33;100343.45;;;16.73;66.85
42067;BME280;27734;47.028;28.820;2023-05-25T00:26:03;100348.73;;;16.70;67.68
42067;BME280;27734;47.028;28.820;2023-05-25T00:28:31;100340.73;;;16.64;67.06
42067;BME280;27734;47.028;28.820;2023-05-25T00:30:59;100346.89;;;16.58;67.64
42067;BME280;27734;47.028;28.820;2023-05-25T00:33:28;100341.53;;;16.52;67.66
42067;BME280;27734;47.028;28.820;2023-05-25T00:35:56;100345.00;;;16.46;67.81
42067;BME280;27734;47.028;28.820;2023-05-25T00:38:25;100341.49;;;16.47;67.91
42067;BME280;27734;47.028;28.820;2023-05-25T00:40:55;100344.17;;;16.50;67.19
42067;BME280;27734;47.028;28.820;2023-05-25T00:43:23;100349.47;;;16.50;67.67
42067;BME280;27734;47.028;28.820;2023-05-25T00:45:52;100355.59;;;16.46;68.74
42067;BME280;27734;47.028;28.820;2023-05-25T00:48:22;100359.95;;;16.40;68.94
42067;BME280;27734;47.028;28.820;2023-05-25T00:50:53;100362.55;;;16.33;68.82
42067;BME280;27734;47.028;28.820;2023-05-25T00:53:24;100366.90;;;16.27;69.32
42067;BME280;27734;47.028;28.820;2023-05-25T00:55:58;100378.31;;;16.23;69.91
42067;BME280;27734;47.028;28.820;2023-05-25T00:58:32;100382.72;;;16.21;68.62
42067;BME280;27734;47.028;28.820;2023-05-25T01:01:01;100379.14;;;16.18;69.22
42067;BME280;27734;47.028;28.820;2023-05-25T01:03:33;100379.11;;;16.15;69.51
42067;BME280;27734;47.028;28.820;2023-05-25T01:06:08;100375.62;;;16.18;69.10
42067;BME280;27734;47.028;28.820;2023-05-25T01:08:40;100386.23;;;16.20;69.37
42067;BME280;27734;47.028;28.820;2023-05-25T01:11:10;100380.03;;;16.17;68.91
42067;BME280;27734;47.028;28.820;2023-05-25T01:13:42;100372.98;;;16.20;68.99
42067;BME280;27734;47.028;28.820;2023-05-25T01:16:11;100374.80;;;16.22;69.39
42067;BME280;27734;47.028;28.820;2023-05-25T01:18:43;100374.81;;;16.24;69.16
42067;BME280;27734;47.028;28.820;2023-05-25T01:21:16;100378.33;;;16.24;69.37
42067;BME280;27734;47.028;28.820;2023-05-25T01:23:51;100380.13;;;16.25;69.18
42067;BME280;27734;47.028;28.820;2023-05-25T01:26:25;100377.45;;;16.24;68.89
42067;BME280;27734;47.028;28.820;2023-05-25T01:28:55;100366.85;;;16.22;69.30
42067;BME280;27734;47.028;28.820;2023-05-25T01:31:25;100372.14;;;16.22;69.09
42067;BME280;27734;47.028;28.820;2023-05-25T01:33:54;100373.86;;;16.20;69.22
42067;BME280;27734;47.028;28.820;2023-05-25T01:36:23;100366.80;;;16.17;69.07
42067;BME280;27734;47.028;28.820;2023-05-25T01:38:52;100364.14;;;16.16;69.29
42067;BME280;27734;47.028;28.820;2023-05-25T01:41:21;100365.86;;;16.14;69.70
42067;BME280;27734;47.028;28.820;2023-05-25T01:43:49;100366.75;;;16.13;69.45
42067;BME280;27734;47.028;28.820;2023-05-25T01:46:25;100367.62;;;16.13;70.07
42067;BME280;27734;47.028;28.820;2023-05-25T01:49:05;100357.90;;;16.12;70.14
42067;BME280;27734;47.028;28.820;2023-05-25T01:51:39;100355.23;;;16.11;69.10
42067;BME280;27734;47.028;28.820;2023-05-25T01:54:15;100354.42;;;16.16;70.02
42067;BME280;27734;47.028;28.820;2023-05-25T01:56:47;100358.00;;;16.22;69.48
42067;BME280;27734;47.028;28.820;2023-05-25T01:59:20;100361.54;;;16.21;69.43
42067;BME280;27734;47.028;28.820;2023-05-25T02:01:50;100354.45;;;16.20;69.64
42067;BME280;27734;47.028;28.820;2023-05-25T02:04:20;100354.39;;;16.13;69.91
42067;BME280;27734;47.028;28.820;2023-05-25T02:06:51;100357.86;;;16.09;70.06
42067;BME280;27734;47.028;28.820;2023-05-25T02:09:19;100357.86;;;16.09;70.02
42067;BME280;27734;47.028;28.820;2023-05-25T02:11:48;100353.47;;;16.08;70.08
42067;BME280;27734;47.028;28.820;2023-05-25T02:14:16;100363.13;;;16.06;70.49
42067;BME280;27734;47.028;28.820;2023-05-25T02:16:45;100357.84;;;16.08;69.96
42067;BME280;27734;47.028;28.820;2023-05-25T02:19:13;100356.14;;;16.11;69.97
42067;BME280;27734;47.028;28.820;2023-05-25T02:21:42;100358.77;;;16.10;70.31
42067;BME280;27734;47.028;28.820;2023-05-25T02:24:10;100366.75;;;16.13;70.85
42067;BME280;27734;47.028;28.820;2023-05-25T02:26:39;100368.48;;;16.12;70.21
42067;BME280;27734;47.028;28.820;2023-05-25T02:29:08;100373.78;;;16.12;70.51
42067;BME280;27734;47.028;28.820;2023-05-25T02:31:36;100370.27;;;16.13;70.37
42067;BME280;27734;47.028;28.820;2023-05-25T02:34:05;100375.53;;;16.10;70.25
42067;BME280;27734;47.028;28.820;2023-05-25T02:36:33;100376.39;;;16.09;71.10
42067;BME280;27734;47.028;28.820;2023-05-25T02:39:05;100376.37;;;16.08;70.77
42067;BME280;27734;47.028;28.820;2023-05-25T02:41:33;100374.62;;;16.07;70.42
42067;BME280;27734;47.028;28.820;2023-05-25T02:44:02;100381.70;;;16.11;70.52
42067;BME280;27734;47.028;28.820;2023-05-25T02:46:32;100374.67;;;16.11;71.26
42067;BME280;27734;47.028;28.820;2023-05-25T02:49:00;100372.92;;;16.13;71.37
42067;BME280;27734;47.028;28.820;2023-05-25T02:51:29;100374.70;;;16.14;71.14
42067;BME280;27734;47.028;28.820;2023-05-25T02:53:59;100371.19;;;16.17;71.20
42067;BME280;27734;47.028;28.820;2023-05-25T02:56:28;100374.78;;;16.21;71.63
42067;BME280;27734;47.028;28.820;2023-05-25T02:58:57;100374.70;;;16.14;71.54
42067;BME280;27734;47.028;28.820;2023-05-25T03:01:33;100382.59;;;16.10;71.13
42067;BME280;27734;47.028;28.820;2023-05-25T03:04:02;100381.65;;;16.06;71.95
42067;BME280;27734;47.028;28.820;2023-05-25T03:06:33;100381.63;;;16.05;71.79
42067;BME280;27734;47.028;28.820;2023-05-25T03:09:08;100384.30;;;16.06;71.59
42067;BME280;27734;47.028;28.820;2023-05-25T03:11:37;100379.94;;;16.08;71.61
42067;BME280;27734;47.028;28.820;2023-05-25T03:14:06;100385.28;;;16.13;71.42
42067;BME280;27734;47.028;28.820;2023-05-25T03:16:35;100389.70;;;16.15;72.63
42067;BME280;27734;47.028;28.820;2023-05-25T03:19:05;100391.41;;;16.10;71.98
42067;BME280;27734;47.028;28.820;2023-05-25T03:21:37;100396.67;;;16.07;72.01
42067;BME280;27734;47.028;28.820;2023-05-25T03:24:06;100396.64;;;16.04;71.78
42067;BME280;27734;47.028;28.820;2023-05-25T03:26:35;100393.11;;;16.04;72.75
42067;BME280;27734;47.028;28.820;2023-05-25T03:29:03;100399.27;;;16.03;72.84
42067;BME280;27734;47.028;28.820;2023-05-25T03:31:33;100397.52;;;16.05;72.37
42067;BME280;27734;47.028;28.820;2023-05-25T03:34:02;100398.52;;;16.13;72.78
42067;BME280;27734;47.028;28.820;2023-05-25T03:36:31;100396.78;;;16.16;72.46
42067;BME280;27734;47.028;28.820;2023-05-25T03:39:00;100400.36;;;16.22;72.92
42067;BME280;27734;47.028;28.820;2023-05-25T03:41:29;100398.63;;;16.24;73.15
42067;BME280;27734;47.028;28.820;2023-05-25T03:43:58;100400.45;;;16.31;72.87
42067;BME280;27734;47.028;28.820;2023-05-25T03:46:26;100397.86;;;16.35;72.37
42067;BME280;27734;47.028;28.820;2023-05-25T03:48:57;100391.75;;;16.41;73.28
42067;BME280;27734;47.028;28.820;2023-05-25T03:51:26;100395.34;;;16.48;73.27
42067;BME280;27734;47.028;28.820;2023-05-25T03:53:56;100397.17;;;16.53;73.18
42067;BME280;27734;47.028;28.820;2023-05-25T03:56:25;100401.60;;;16.58;72.46
42067;BME280;27734;47.028;28.820;2023-05-25T03:58:53;100399.02;;;16.64;72.75
42067;BME280;27734;47.028;28.820;2023-05-25T04:01:22;100396.44;;;16.71;73.35
42067;BME280;27734;47.028;28.820;2023-05-25T04:03:53;100397.44;;;16.83;73.57
42067;BME280;27734;47.028;28.820;2023-05-25T04:06:22;100396.64;;;16.92;73.33
42067;BME280;27734;47.028;28.820;2023-05-25T04:08:52;100401.12;;;16.99;72.91
42067;BME280;27734;47.028;28.820;2023-05-25T04:11:20;100402.05;;;17.05;72.65
42067;BME280;27734;47.028;28.820;2023-05-25T04:13:49;100408.25;;;17.09;72.65
42067;BME280;27734;47.028;28.820;2023-05-25T04:16:18;100413.62;;;17.17;72.95
42067;BME280;27734;47.028;28.820;2023-05-25T04:18:48;100404.85;;;17.25;72.93
42067;BME280;27734;47.028;28.820;2023-05-25T04:21:16;100394.28;;;17.32;72.64
42067;BME280;27734;47.028;28.820;2023-05-25T04:23:45;100401.39;;;17.36;72.59
42067;BME280;27734;47.028;28.820;2023-05-25T04:26:13;100401.41;;;17.42;72.94
42067;BME280;27734;47.028;28.820;2023-05-25T04:28:43;100404.09;;;17.48;72.83
42067;BME280;27734;47.028;28.820;2023-05-25T04:31:36;100405.88;;;17.48;72.72
42067;BME280;27734;47.028;28.820;2023-05-25T04:34:14;100405.85;;;17.45;72.53
42067;BME280;27734;47.028;28.820;2023-05-25T04:36:50;100407.64;;;17.46;72.49
42067;BME280;27734;47.028;28.820;2023-05-25T04:39:21;100408.53;;;17.49;72.47
42067;BME280;27734;47.028;28.820;2023-05-25T04:41:53;100411.20;;;17.52;72.62
42067;BME280;27734;47.028;28.820;2023-05-25T04:44:24;100411.25;;;17.60;72.34
42067;BME280;27734;47.028;28.820;2023-05-25T04:46:54;100411.29;;;17.68;72.31
42067;BME280;27734;47.028;28.820;2023-05-25T04:49:30;100417.52;;;17.77;72.07
42067;BME280;27734;47.028;28.820;2023-05-25T04:51:58;100423.78;;;17.87;72.39
42067;BME280;27734;47.028;28.820;2023-05-25T04:54:29;100420.30;;;17.98;72.23
42067;BME280;27734;47.028;28.820;2023-05-25T04:57:00;100419.48;;;18.09;72.10
42067;BME280;27734;47.028;28.820;2023-05-25T04:59:29;100422.17;;;18.22;71.80
42067;BME280;27734;47.028;28.820;2023-05-25T05:01:58;100418.66;;;18.35;71.43
42067;BME280;27734;47.028;28.820;2023-05-25T05:04:27;100426.66;;;18.47;71.81
42067;BME280;27734;47.028;28.820;2023-05-25T05:06:57;100424.89;;;18.59;71.47
42067;BME280;27734;47.028;28.820;2023-05-25T05:09:26;100432.02;;;18.71;71.36
42067;BME280;27734;47.028;28.820;2023-05-25T05:11:57;100437.34;;;18.80;71.18
42067;BME280;27734;47.028;28.820;2023-05-25T05:14:26;100424.09;;;18.92;71.44
42067;BME280;27734;47.028;28.820;2023-05-25T05:16:54;100424.97;;;19.07;71.35
42067;BME280;27734;47.028;28.820;2023-05-25T05:19:23;100432.06;;;19.15;71.21
42067;BME280;27734;47.028;28.820;2023-05-25T05:21:51;100429.40;;;19.26;71.11
42067;BME280;27734;47.028;28.820;2023-05-25T05:24:20;100424.94;;;19.37;70.55
42067;BME280;27734;47.028;28.820;2023-05-25T05:26:49;100432.00;;;19.49;70.91
42067;BME280;27734;47.028;28.820;2023-05-25T05:29:18;100429.31;;;19.58;69.85
42067;BME280;27734;47.028;28.820;2023-05-25T05:31:47;100433.73;;;19.70;70.78
42067;BME280;27734;47.028;28.820;2023-05-25T05:34:16;100438.17;;;19.84;70.62
42067;BME280;27734;47.028;28.820;2023-05-25T05:36:46;100439.88;;;19.99;69.55
42067;BME280;27734;47.028;28.820;2023-05-25T05:39:14;100443.37;;;20.11;69.61
42067;BME280;27734;47.028;28.820;2023-05-25T05:41:43;100436.23;;;20.24;69.12
42067;BME280;27734;47.028;28.820;2023-05-25T05:44:12;100435.26;;;20.36;68.82
42067;BME280;27734;47.028;28.820;2023-05-25T05:46:40;100448.52;;;20.48;68.45
42067;BME280;27734;47.028;28.820;2023-05-25T05:49:09;100442.23;;;20.62;68.73
42067;BME280;27734;47.028;28.820;2023-05-25T05:51:38;100457.29;;;20.71;68.37
42067;BME280;27734;47.028;28.820;2023-05-25T05:54:18;100454.55;;;20.81;67.54
42067;BME280;27734;47.028;28.820;2023-05-25T05:56:47;100450.95;;;20.90;68.21
42067;BME280;27734;47.028;28.820;2023-05-25T05:59:24;100445.55;;;20.99;67.97
42067;BME280;27734;47.028;28.820;2023-05-25T06:02:04;100448.11;;;21.12;67.00
42067;BME280;27734;47.028;28.820;2023-05-25T06:04:45;100451.59;;;21.18;66.66
42067;BME280;27734;47.028;28.820;2023-05-25T06:07:17;100452.38;;;21.30;66.65
42067;BME280;27734;47.028;28.820;2023-05-25T06:09:46;100449.64;;;21.37;66.36
42067;BME280;27734;47.028;28.820;2023-05-25T06:12:21;100449.56;;;21.45;65.85
42067;BME280;27734;47.028;28.820;2023-05-25T06:14:56;100442.45;;;21.50;66.22
42067;BME280;27734;47.028;28.820;2023-05-25T06:17:30;100447.66;;;21.60;66.44
42067;BME280;27734;47.028;28.820;2023-05-25T06:20:11;100446.68;;;21.70;66.14
42067;BME280;27734;47.028;28.820;2023-05-25T06:22:44;100445.73;;;21.76;65.81
42067;BME280;27734;47.028;28.820;2023-05-25T06:25:23;100443.00;;;21.82;64.66
42067;BME280;27734;47.028;28.820;2023-05-25T06:28:00;100450.03;;;21.87;64.26
42067;BME280;27734;47.028;28.820;2023-05-25T06:30:31;100451.73;;;21.96;65.07
42067;BME280;27734;47.028;28.820;2023-05-25T06:33:04;100444.47;;;22.06;63.74
42067;BME280;27734;47.028;28.820;2023-05-25T06:35:33;100454.17;;;22.15;64.24
42067;BME280;27734;47.028;28.820;2023-05-25T06:38:06;100452.23;;;22.26;63.40
42067;BME280;27734;47.028;28.820;2023-05-25T06:40:39;100453.92;;;22.36;63.73
42067;BME280;27734;47.028;28.820;2023-05-25T06:43:20;100451.11;;;22.47;63.13
42067;BME280;27734;47.028;28.820;2023-05-25T06:46:16;100457.16;;;22.60;63.20
42067;BME280;27734;47.028;28.820;2023-05-25T06:48:54;100458.75;;;22.72;62.96
42067;BME280;27734;47.028;28.820;2023-05-25T06:51:40;100454.14;;;22.83;63.00
42067;BME280;27734;47.028;28.820;2023-05-25T06:54:17;100459.27;;;22.97;62.23
42067;BME280;27734;47.028;28.820;2023-05-25T06:56:48;100453.75;;;23.08;61.94
42067;BME280;27734;47.028;28.820;2023-05-25T06:59:21;100457.95;;;23.24;61.92
42067;BME280;27734;47.028;28.820;2023-05-25T07:01:55;100455.88;;;23.40;61.44
42067;BME280;27734;47.028;28.820;2023-05-25T07:04:37;100454.61;;;23.61;60.73
42067;BME280;27734;47.028;28.820;2023-05-25T07:07:13;100454.26;;;23.80;58.97
42067;BME280;27734;47.028;28.820;2023-05-25T07:09:48;100461.09;;;23.96;58.63
42067;BME280;27734;47.028;28.820;2023-05-25T07:12:18;100462.55;;;24.13;58.58
42067;BME280;27734;47.028;28.820;2023-05-25T07:14:51;100470.27;;;24.28;58.00
42067;BME280;27734;47.028;28.820;2023-05-25T07:17:23;100468.97;;;24.46;57.81
42067;BME280;27734;47.028;28.820;2023-05-25T07:19:59;100474.94;;;24.62;56.63
42067;BME280;27734;47.028;28.820;2023-05-25T07:22:32;100466.60;;;24.74;56.24
42067;BME280;27734;47.028;28.820;2023-05-25T07:25:07;100467.37;;;24.80;55.77
42067;BME280;27734;47.028;28.820;2023-05-25T07:27:39;100470.81;;;24.85;55.00
42067;BME280;27734;47.028;28.820;2023-05-25T07:30:14;100468.17;;;24.83;54.50
42067;BME280;27734;47.028;28.820;2023-05-25T07:32:46;100462.69;;;24.88;54.23
42067;BME280;27734;47.028;28.820;2023-05-25T07:35:16;100471.43;;;24.96;53.71
42067;BME280;27734;47.028;28.820;2023-05-25T07:37:58;100465.91;;;25.02;53.83
42067;BME280;27734;47.028;28.820;2023-05-25T07:43:44;100462.48;;;25.33;52.89
42067;BME280;27734;47.028;28.820;2023-05-25T07:49:13;100466.80;;;25.73;51.83
42067;BME280;27734;47.028;28.820;2023-05-25T07:51:45;100467.46;;;25.81;51.99
42067;BME280;27734;47.028;28.820;2023-05-25T07:57:33;100460.91;;;25.92;51.12
42067;BME280;27734;47.028;28.820;2023-05-25T08:00:33;100474.17;;;25.99;50.94
42067;BME280;27734;47.028;28.820;2023-05-25T08:03:16;100472.05;;;26.11;50.72
42067;BME280;27734;47.028;28.820;2023-05-25T08:09:03;100463.30;;;26.34;48.20
42067;BME280;27734;47.028;28.820;2023-05-25T08:11:48;100469.22;;;26.45;48.44
42067;BME280;27734;47.028;28.820;2023-05-25T08:14:27;100462.59;;;26.57;48.25
42067;BME280;27734;47.028;28.820;2023-05-25T08:16:58;100472.14;;;26.96;47.00
42067;BME280;27734;47.028;28.820;2023-05-25T08:19:36;100462.94;;;27.30;48.02
42067;BME280;27734;47.028;28.820;2023-05-25T08:22:09;100453.11;;;27.55;46.97
42067;BME280;27734;47.028;28.820;2023-05-25T08:24:55;100458.55;;;27.79;46.23
42067;BME280;27734;47.028;28.820;2023-05-25T08:27:31;100463.77;;;28.09;45.93
42067;BME280;27734;47.028;28.820;2023-05-25T08:30:18;100463.77;;;28.32;46.39
42067;BME280;27734;47.028;28.820;2023-05-25T08:33:03;100453.52;;;28.42;45.58
42067;BME280;27734;47.028;28.820;2023-05-25T08:35:57;100452.49;;;28.45;45.34
42067;BME280;27734;47.028;28.820;2023-05-25T08:38:30;100459.20;;;28.35;44.54
42067;BME280;27734;47.028;28.820;2023-05-25T08:44:00;100458.16;;;27.90;43.06
42067;BME280;27734;47.028;28.820;2023-05-25T08:47:11;100465.03;;;27.98;42.43
42067;BME280;27734;47.028;28.820;2023-05-25T08:49:45;100462.78;;;28.11;42.88
42067;BME280;27734;47.028;28.820;2023-05-25T08:52:58;100459.39;;;28.30;42.06
42067;BME280;27734;47.028;28.820;2023-05-25T08:59:33;100447.12;;;28.21;41.81
42067;BME280;27734;47.028;28.820;2023-05-25T09:02:33;100439.77;;;28.25;42.07
42067;BME280;27734;47.028;28.820;2023-05-25T09:05:04;100442.78;;;28.41;41.82
42067;BME280;27734;47.028;28.820;2023-05-25T09:07:37;100435.38;;;28.46;41.34
42067;BME280;27734;47.028;28.820;2023-05-25T09:10:09;100440.31;;;28.58;41.38
42067;BME280;27734;47.028;28.820;2023-05-25T09:12:41;100435.78;;;28.59;41.35
42067;BME280;27734;47.028;28.820;2023-05-25T09:15:11;100430.84;;;28.46;40.25
42067;BME280;27734;47.028;28.820;2023-05-25T09:17:40;100431.41;;;28.55;40.38
42067;BME280;27734;47.028;28.820;2023-05-25T09:20:11;100420.98;;;28.69;40.16
42067;BME280;27734;47.028;28.820;2023-05-25T09:22:44;100413.92;;;28.87;39.94
42067;BME280;27734;47.028;28.820;2023-05-25T09:25:17;100420.84;;;28.94;39.39
42067;BME280;27734;47.028;28.820;2023-05-25T09:27:52;100419.45;;;28.84;39.20
42067;BME280;27734;47.028;28.820;2023-05-25T09:30:26;100418.47;;;28.64;38.30
42067;BME280;27734;47.028;28.820;2023-05-25T09:33:12;100430.45;;;28.33;38.80
42067;BME280;27734;47.028;28.820;2023-05-25T09:35:47;100419.91;;;28.27;39.16
42067;BME280;27734;47.028;28.820;2023-05-25T09:38:22;100409.62;;;28.37;38.64
42067;BME280;27734;47.028;28.820;2023-05-25T09:41:03;100418.61;;;28.38;38.65
42067;BME280;27734;47.028;28.820;2023-05-25T09:43:37;100417.28;;;28.48;38.87
42067;BME280;27734;47.028;28.820;2023-05-25T09:46:11;100417.04;;;28.54;38.83
42067;BME280;27734;47.028;28.820;2023-05-25T09:48:56;100414.47;;;28.51;38.86
42067;BME280;27734;47.028;28.820;2023-05-25T09:51:33;100411.89;;;28.48;39.22
42067;BME280;27734;47.028;28.820;2023-05-25T09:54:12;100405.36;;;28.31;39.08
42067;BME280;27734;47.028;28.820;2023-05-25T09:56:48;100402.30;;;28.17;39.07
42067;BME280;27734;47.028;28.820;2023-05-25T09:59:42;100398.34;;;28.04;39.04
42067;BME280;27734;47.028;28.820;2023-05-25T10:02:36;100390.86;;;27.87;39.02
42067;BME280;27734;47.028;28.820;2023-05-25T10:05:40;100398.72;;;27.93;39.13
42067;BME280;27734;47.028;28.820;2023-05-25T10:08:16;100395.53;;;28.07;38.73
42067;BME280;27734;47.028;28.820;2023-05-25T10:11:13;100393.10;;;28.23;38.32
42067;BME280;27734;47.028;28.820;2023-05-25T10:13:54;100394.45;;;28.35;38.71
42067;BME280;27734;47.028;28.820;2023-05-25T10:16:33;100380.44;;;28.47;37.86
42067;BME280;27734;47.028;28.820;2023-05-25T10:19:16;100375.04;;;28.47;37.98
42067;BME280;27734;47.028;28.820;2023-05-25T10:21:57;100370.69;;;28.66;37.79
42067;BME280;27734;47.028;28.820;2023-05-25T10:24:44;100377.02;;;28.65;37.88
42067;BME280;27734;47.028;28.820;2023-05-25T10:27:28;100379.46;;;28.72;38.16
42067;BME280;27734;47.028;28.820;2023-05-25T10:30:01;100377.54;;;28.75;38.06
42067;BME280;27734;47.028;28.820;2023-05-25T10:32:30;100380.30;;;28.74;38.05
42067;BME280;27734;47.028;28.820;2023-05-25T10:35:09;100385.95;;;28.67;37.50
42067;BME280;27734;47.028;28.820;2023-05-25T10:37:46;100373.30;;;28.46;37.48
42067;BME280;27734;47.028;28.820;2023-05-25T10:40:16;100366.19;;;28.21;37.54
42067;BME280;27734;47.028;28.820;2023-05-25T10:42:45;100368.56;;;28.07;37.33
42067;BME280;27734;47.028;28.820;2023-05-25T10:45:18;100356.45;;;27.93;37.67
42067;BME280;27734;47.028;28.820;2023-05-25T10:47:53;100359.67;;;27.79;37.50
42067;BME280;27734;47.028;28.820;2023-05-25T10:50:36;100356.56;;;27.67;37.36
42067;BME280;27734;47.028;28.820;2023-05-25T10:53:11;100342.80;;;27.51;37.95
42067;BME280;27734;47.028;28.820;2023-05-25T10:56:04;100337.29;;;27.54;38.01
42067;BME280;27734;47.028;28.820;2023-05-25T10:58:46;100337.81;;;27.64;37.75
42067;BME280;27734;47.028;28.820;2023-05-25T11:01:21;100321.99;;;27.54;38.07
42067;BME280;27734;47.028;28.820;2023-05-25T11:04:16;100323.20;;;27.46;38.30
42067;BME280;27734;47.028;28.820;2023-05-25T11:07:16;100314.08;;;27.24;38.48
42067;BME280;27734;47.028;28.820;2023-05-25T11:10:01;100316.67;;;27.02;38.43
42067;BME280;27734;47.028;28.820;2023-05-25T11:12:41;100311.01;;;26.85;38.37
42067;BME280;27734;47.028;28.820;2023-05-25T11:15:29;100319.55;;;26.71;38.84
42067;BME280;27734;47.028;28.820;2023-05-25T11:18:02;100317.02;;;26.66;39.57
42067;BME280;27734;47.028;28.820;2023-05-25T11:20:35;100312.95;;;26.80;39.16
42067;BME280;27734;47.028;28.820;2023-05-25T11:23:33;100302.47;;;26.97;39.69
42067;BME280;27734;47.028;28.820;2023-05-25T11:26:23;100312.81;;;27.09;39.80
42067;BME280;27734;47.028;28.820;2023-05-25T11:29:14;100306.39;;;27.39;39.44
42067;BME280;27734;47.028;28.820;2023-05-25T11:31:53;100313.97;;;27.53;39.91
42067;BME280;27734;47.028;28.820;2023-05-25T11:34:24;100320.83;;;27.61;39.51
42067;BME280;27734;47.028;28.820;2023-05-25T11:36:56;100342.69;;;27.77;39.58
42067;BME280;27734;47.028;28.820;2023-05-25T11:39:40;100372.22;;;27.80;38.60
42067;BME280;27734;47.028;28.820;2023-05-25T11:42:10;100375.75;;;27.07;35.41
42067;BME280;27734;47.028;28.820;2023-05-25T11:44:43;100385.77;;;26.18;35.93
42067;BME280;27734;47.028;28.820;2023-05-25T11:47:13;100399.19;;;25.57;36.04
42067;BME280;27734;47.028;28.820;2023-05-25T11:49:47;100378.41;;;25.31;36.96
42067;BME280;27734;47.028;28.820;2023-05-25T11:52:19;100393.13;;;25.15;37.08
42067;BME280;27734;47.028;28.820;2023-05-25T11:55:19;100384.15;;;24.81;37.60
42067;BME280;27734;47.028;28.820;2023-05-25T11:57:58;100391.20;;;24.46;38.74
42067;BME280;27734;47.028;28.820;2023-05-25T12:00:31;100402.31;;;24.29;39.76
42067;BME280;27734;47.028;28.820;2023-05-25T12:03:05;100405.30;;;24.17;40.28
42067;BME280;27734;47.028;28.820;2023-05-25T12:05:41;100428.74;;;24.05;41.46
42067;BME280;27734;47.028;28.820;2023-05-25T12:08:13;100422.11;;;23.80;43.56
42067;BME280;27734;47.028;28.820;2023-05-25T12:10:51;100436.45;;;23.29;46.20
42067;BME280;27734;47.028;28.820;2023-05-25T12:13:34;100432.95;;;22.69;46.84
42067;BME280;27734;47.028;28.820;2023-05-25T12:16:03;100428.95;;;22.37;46.10
42067;BME280;27734;47.028;28.820;2023-05-25T12:18:34;100412.30;;;22.15;46.85
42067;BME280;27734;47.028;28.820;2023-05-25T12:21:03;100407.14;;;22.00;47.20
42067;BME280;27734;47.028;28.820;2023-05-25T12:23:38;100401.92;;;21.90;48.33
42067;BME280;27734;47.028;28.820;2023-05-25T12:26:13;100409.93;;;21.90;47.80
42067;BME280;27734;47.028;28.820;2023-05-25T12:29:00;100397.45;;;21.94;49.55
42067;BME280;27734;47.028;28.820;2023-05-25T12:31:33;100401.88;;;21.94;49.89
42067;BME280;27734;47.028;28.820;2023-05-25T12:34:07;100385.97;;;21.84;50.66
42067;BME280;27734;47.028;28.820;2023-05-25T12:36:43;100381.66;;;21.74;50.87
42067;BME280;27734;47.028;28.820;2023-05-25T12:39:15;100381.00;;;21.55;50.94
42067;BME280;27734;47.028;28.820;2023-05-25T12:41:52;100373.13;;;21.40;51.02
42067;BME280;27734;47.028;28.820;2023-05-25T12:44:28;100381.34;;;21.19;51.35
42067;BME280;27734;47.028;28.820;2023-05-25T12:47:10;100388.63;;;21.02;52.17
42067;BME280;27734;47.028;28.820;2023-05-25T12:49:44;100389.63;;;20.87;52.96
42067;BME280;27734;47.028;28.820;2023-05-25T12:52:31;100395.12;;;20.67;52.92
42067;BME280;27734;47.028;28.820;2023-05-25T12:55:20;100401.52;;;20.38;55.80
42067;BME280;27734;47.028;28.820;2023-05-25T12:57:53;100408.74;;;20.11;56.62
42067;BME280;27734;47.028;28.820;2023-05-25T13:00:23;100414.18;;;19.93;57.43
42067;BME280;27734;47.028;28.820;2023-05-25T13:02:53;100431.06;;;19.75;58.33
42067;BME280;27734;47.028;28.820;2023-05-25T13:05:25;100433.76;;;19.61;60.46
42067;BME280;27734;47.028;28.820;2023-05-25T13:07:55;100428.47;;;19.47;60.30
42067;BME280;27734;47.028;28.820;2023-05-25T13:10:30;100433.80;;;19.36;60.85
42067;BME280;27734;47.028;28.820;2023-05-25T13:13:11;100448.89;;;19.31;59.87
42067;BME280;27734;47.028;28.820;2023-05-25T13:18:38;100450.68;;;19.21;63.41
42067;BME280;27734;47.028;28.820;2023-05-25T13:21:28;100430.28;;;19.16;62.78
42067;BME280;27734;47.028;28.820;2023-05-25T13:24:15;100432.06;;;19.08;63.76
42067;BME280;27734;47.028;28.820;2023-05-25T13:26:51;100424.97;;;19.00;65.23
42067;BME280;27734;47.028;28.820;2023-05-25T13:29:39;100431.19;;;18.89;65.80
42067;BME280;27734;47.028;28.820;2023-05-25T13:32:28;100430.23;;;18.77;66.30
42067;BME280;27734;47.028;28.820;2023-05-25T13:35:06;100416.94;;;18.68;66.55
42067;BME280;27734;47.028;28.820;2023-05-25T13:37:46;100417.81;;;18.52;66.27
42067;BME280;27734;47.028;28.820;2023-05-25T13:40:24;100410.66;;;18.24;67.44